sensor_id;sensor_type;location;lat;lon;timestamp;pressure;altitude;pressure_sealevel;temperature;humidity
7178;BME280;3630;42.146;24.756;2023-03-18T00:00:58;100038.69;;;6.50;59.11
7178;BME280;3630;42.146;24.756;2023-03-18T00:03:25;100035.41;;;6.54;58.75
7178;BME280;3630;42.146;24.756;2023-03-18T00:06:01;100039.16;;;6.42;59.61
7178;BME280;3630;42.146;24.756;2023-03-18T00:08:29;100037.16;;;6.35;59.39
7178;BME280;3630;42.146;24.756;2023-03-18T00:10:56;100032.63;;;6.28;59.66
7178;BME280;3630;42.146;24.756;2023-03-18T00:13:25;100025.53;;;6.41;59.92
7178;BME280;3630;42.146;24.756;2023-03-18T00:15:52;100025.03;;;6.50;59.84
7178;BME280;3630;42.146;24.756;2023-03-18T00:18:19;100020.19;;;6.56;59.07
7178;BME280;3630;42.146;24.756;2023-03-18T00:20:46;100021.63;;;6.70;59.01
7178;BME280;3630;42.146;24.756;2023-03-18T00:23:12;100016.81;;;6.78;58.56
7178;BME280;3630;42.146;24.756;2023-03-18T00:25:39;100016.22;;;6.85;58.28
7178;BME280;3630;42.146;24.756;2023-03-18T00:28:08;100014.72;;;6.90;58.09
7178;BME280;3630;42.146;24.756;2023-03-18T00:30:38;100007.91;;;6.90;58.65
7178;BME280;3630;42.146;24.756;2023-03-18T00:33:06;100014.94;;;6.96;58.56
7178;BME280;3630;42.146;24.756;2023-03-18T00:35:35;100011.72;;;7.00;58.06
7178;BME280;3630;42.146;24.756;2023-03-18T00:38:02;100016.13;;;7.04;57.18
7178;BME280;3630;42.146;24.756;2023-03-18T00:40:32;100009.16;;;7.00;57.67
7178;BME280;3630;42.146;24.756;2023-03-18T00:43:18;100008.34;;;7.01;57.23
7178;BME280;3630;42.146;24.756;2023-03-18T00:45:49;100006.50;;;6.97;57.00
7178;BME280;3630;42.146;24.756;2023-03-18T00:48:16;99974.53;;;6.64;57.71
7178;BME280;3630;42.146;24.756;2023-03-18T00:50:43;99990.09;;;6.70;57.50
7178;BME280;3630;42.146;24.756;2023-03-18T00:53:11;99994.88;;;6.83;57.59
7178;BME280;3630;42.146;24.756;2023-03-18T00:55:39;99995.28;;;6.93;57.21
7178;BME280;3630;42.146;24.756;2023-03-18T00:58:06;100001.66;;;7.04;57.20
7178;BME280;3630;42.146;24.756;2023-03-18T01:00:33;99995.13;;;7.11;56.93
7178;BME280;3630;42.146;24.756;2023-03-18T01:03:02;100000.44;;;7.17;56.61
7178;BME280;3630;42.146;24.756;2023-03-18T01:05:29;99992.03;;;7.20;55.97
7178;BME280;3630;42.146;24.756;2023-03-18T01:07:56;99995.63;;;7.25;55.29
7178;BME280;3630;42.146;24.756;2023-03-18T01:10:24;99990.22;;;7.17;55.35
7178;BME280;3630;42.146;24.756;2023-03-18T01:12:51;99999.47;;;7.36;55.60
7178;BME280;3630;42.146;24.756;2023-03-18T01:15:20;99969.03;;;7.20;55.29
7178;BME280;3630;42.146;24.756;2023-03-18T01:17:47;99988.41;;;7.37;55.56
7178;BME280;3630;42.146;24.756;2023-03-18T01:20:18;99965.28;;;7.34;55.46
7178;BME280;3630;42.146;24.756;2023-03-18T01:22:45;99993.44;;;7.57;54.79
7178;BME280;3630;42.146;24.756;2023-03-18T01:25:13;99986.78;;;7.62;54.34
7178;BME280;3630;42.146;24.756;2023-03-18T01:27:41;99991.09;;;7.63;54.60
7178;BME280;3630;42.146;24.756;2023-03-18T01:30:09;99985.75;;;7.57;54.96
7178;BME280;3630;42.146;24.756;2023-03-18T01:32:37;99967.06;;;7.36;55.69
7178;BME280;3630;42.146;24.756;2023-03-18T01:35:05;99986.94;;;7.43;56.01
7178;BME280;3630;42.146;24.756;2023-03-18T01:37:33;99986.03;;;7.41;55.94
7178;BME280;3630;42.146;24.756;2023-03-18T01:40:01;99987.31;;;7.30;55.33
7178;BME280;3630;42.146;24.756;2023-03-18T01:42:28;99982.78;;;7.23;55.33
7178;BME280;3630;42.146;24.756;2023-03-18T01:45:16;99980.19;;;7.22;56.12
7178;BME280;3630;42.146;24.756;2023-03-18T01:47:44;99958.41;;;7.09;56.68
7178;BME280;3630;42.146;24.756;2023-03-18T01:50:14;99979.06;;;7.15;57.53
7178;BME280;3630;42.146;24.756;2023-03-18T01:52:44;99979.78;;;7.11;57.42
7178;BME280;3630;42.146;24.756;2023-03-18T01:55:15;99973.28;;;6.97;58.59
7178;BME280;3630;42.146;24.756;2023-03-18T01:57:44;99964.22;;;6.83;59.84
7178;BME280;3630;42.146;24.756;2023-03-18T02:00:12;99963.41;;;6.84;60.17
7178;BME280;3630;42.146;24.756;2023-03-18T02:02:42;99981.47;;;6.88;59.79
7178;BME280;3630;42.146;24.756;2023-03-18T02:05:14;99971.00;;;6.82;60.18
7178;BME280;3630;42.146;24.756;2023-03-18T02:07:44;99970.75;;;6.76;59.85
7178;BME280;3630;42.146;24.756;2023-03-18T02:10:12;99971.47;;;6.72;60.48
7178;BME280;3630;42.146;24.756;2023-03-18T02:12:43;99967.00;;;6.67;60.47
7178;BME280;3630;42.146;24.756;2023-03-18T02:15:13;99959.97;;;6.61;60.70
7178;BME280;3630;42.146;24.756;2023-03-18T02:17:45;99964.25;;;6.62;60.76
7178;BME280;3630;42.146;24.756;2023-03-18T02:20:28;99965.81;;;6.59;60.83
7178;BME280;3630;42.146;24.756;2023-03-18T02:23:06;99970.31;;;6.64;61.51
7178;BME280;3630;42.146;24.756;2023-03-18T02:25:41;99964.16;;;6.59;61.49
7178;BME280;3630;42.146;24.756;2023-03-18T02:28:16;99974.56;;;6.65;60.67
7178;BME280;3630;42.146;24.756;2023-03-18T02:30:47;99973.94;;;6.71;61.05
7178;BME280;3630;42.146;24.756;2023-03-18T02:33:18;99968.53;;;6.63;61.12
7178;BME280;3630;42.146;24.756;2023-03-18T02:35:50;99970.44;;;6.67;60.97
7178;BME280;3630;42.146;24.756;2023-03-18T02:38:18;99965.31;;;6.67;61.14
7178;BME280;3630;42.146;24.756;2023-03-18T02:40:45;99966.13;;;6.66;61.26
7178;BME280;3630;42.146;24.756;2023-03-18T02:43:22;99969.41;;;6.64;61.26
7178;BME280;3630;42.146;24.756;2023-03-18T02:46:06;99966.06;;;6.65;61.86
7178;BME280;3630;42.146;24.756;2023-03-18T02:48:39;99973.81;;;6.68;61.63
7178;BME280;3630;42.146;24.756;2023-03-18T02:51:08;99977.22;;;6.67;61.01
7178;BME280;3630;42.146;24.756;2023-03-18T02:53:36;99975.66;;;6.70;61.37
7178;BME280;3630;42.146;24.756;2023-03-18T02:56:04;99983.81;;;6.62;61.30
7178;BME280;3630;42.146;24.756;2023-03-18T02:58:33;99981.91;;;6.56;61.15
7178;BME280;3630;42.146;24.756;2023-03-18T03:01:00;99987.00;;;6.56;61.37
7178;BME280;3630;42.146;24.756;2023-03-18T03:03:28;99981.16;;;6.59;60.50
7178;BME280;3630;42.146;24.756;2023-03-18T03:05:55;99980.91;;;6.52;60.84
7178;BME280;3630;42.146;24.756;2023-03-18T03:08:22;99980.91;;;6.52;60.74
7178;BME280;3630;42.146;24.756;2023-03-18T03:10:50;99983.91;;;6.42;61.11
7178;BME280;3630;42.146;24.756;2023-03-18T03:13:17;99987.41;;;6.46;61.06
7178;BME280;3630;42.146;24.756;2023-03-18T03:15:46;99985.56;;;6.42;61.10
7178;BME280;3630;42.146;24.756;2023-03-18T03:18:13;99952.66;;;6.27;60.71
7178;BME280;3630;42.146;24.756;2023-03-18T03:20:41;99987.63;;;6.50;61.15
7178;BME280;3630;42.146;24.756;2023-03-18T03:23:09;99985.19;;;6.53;60.54
7178;BME280;3630;42.146;24.756;2023-03-18T03:25:38;99991.34;;;6.59;60.07
7178;BME280;3630;42.146;24.756;2023-03-18T03:28:06;99981.38;;;6.65;60.32
7178;BME280;3630;42.146;24.756;2023-03-18T03:30:34;99992.66;;;6.70;59.20
7178;BME280;3630;42.146;24.756;2023-03-18T03:33:04;99993.56;;;6.72;58.83
7178;BME280;3630;42.146;24.756;2023-03-18T03:35:31;99957.03;;;6.52;59.04
7178;BME280;3630;42.146;24.756;2023-03-18T03:37:58;99986.84;;;6.74;59.05
7178;BME280;3630;42.146;24.756;2023-03-18T03:40:25;99984.16;;;6.71;60.18
7178;BME280;3630;42.146;24.756;2023-03-18T03:42:52;99990.31;;;6.76;60.21
7178;BME280;3630;42.146;24.756;2023-03-18T03:45:19;99980.56;;;6.66;60.14
7178;BME280;3630;42.146;24.756;2023-03-18T03:47:46;100005.28;;;6.67;60.39
7178;BME280;3630;42.146;24.756;2023-03-18T03:50:16;99976.03;;;6.59;60.75
7178;BME280;3630;42.146;24.756;2023-03-18T03:52:43;100003.53;;;6.66;61.89
7178;BME280;3630;42.146;24.756;2023-03-18T03:55:12;99996.81;;;6.68;61.04
7178;BME280;3630;42.146;24.756;2023-03-18T03:57:39;99994.06;;;6.63;61.34
7178;BME280;3630;42.146;24.756;2023-03-18T04:00:10;99984.66;;;6.62;61.87
7178;BME280;3630;42.146;24.756;2023-03-18T04:02:38;100001.06;;;6.67;62.62
7178;BME280;3630;42.146;24.756;2023-03-18T04:05:06;100001.69;;;6.62;61.94
7178;BME280;3630;42.146;24.756;2023-03-18T04:07:34;99996.88;;;6.69;61.75
7178;BME280;3630;42.146;24.756;2023-03-18T04:10:02;99997.63;;;6.67;61.87
7178;BME280;3630;42.146;24.756;2023-03-18T04:12:29;99997.81;;;6.71;62.50
7178;BME280;3630;42.146;24.756;2023-03-18T04:14:56;100001.34;;;6.75;61.81
7178;BME280;3630;42.146;24.756;2023-03-18T04:17:23;99997.03;;;6.74;60.57
7178;BME280;3630;42.146;24.756;2023-03-18T04:19:50;99994.63;;;6.77;60.42
7178;BME280;3630;42.146;24.756;2023-03-18T04:22:17;100002.28;;;6.77;61.16
7178;BME280;3630;42.146;24.756;2023-03-18T04:24:45;99999.69;;;6.75;60.74
7178;BME280;3630;42.146;24.756;2023-03-18T04:27:12;100001.22;;;6.72;60.66
7178;BME280;3630;42.146;24.756;2023-03-18T04:29:39;100005.47;;;6.71;60.70
7178;BME280;3630;42.146;24.756;2023-03-18T04:32:06;100012.19;;;6.69;61.54
7178;BME280;3630;42.146;24.756;2023-03-18T04:34:33;100004.47;;;6.68;60.56
7178;BME280;3630;42.146;24.756;2023-03-18T04:37:00;100010.19;;;6.62;61.01
7178;BME280;3630;42.146;24.756;2023-03-18T04:39:27;100010.16;;;6.61;61.07
7178;BME280;3630;42.146;24.756;2023-03-18T04:41:55;99983.06;;;6.43;61.69
7178;BME280;3630;42.146;24.756;2023-03-18T04:44:23;100016.06;;;6.60;61.49
7178;BME280;3630;42.146;24.756;2023-03-18T04:46:50;100006.47;;;6.54;61.01
7178;BME280;3630;42.146;24.756;2023-03-18T04:49:17;100010.72;;;6.53;62.58
7178;BME280;3630;42.146;24.756;2023-03-18T04:51:45;100007.28;;;6.53;61.45
7178;BME280;3630;42.146;24.756;2023-03-18T04:54:12;100017.81;;;6.61;61.95
7178;BME280;3630;42.146;24.756;2023-03-18T04:56:39;100015.00;;;6.54;61.50
7178;BME280;3630;42.146;24.756;2023-03-18T04:59:07;100016.63;;;6.52;61.68
7178;BME280;3630;42.146;24.756;2023-03-18T05:01:34;100012.41;;;6.53;61.74
7178;BME280;3630;42.146;24.756;2023-03-18T05:04:01;100007.09;;;6.48;61.42
7178;BME280;3630;42.146;24.756;2023-03-18T05:06:29;100011.66;;;6.56;61.55
7178;BME280;3630;42.146;24.756;2023-03-18T05:08:58;100012.44;;;6.54;61.65
7178;BME280;3630;42.146;24.756;2023-03-18T05:11:26;100010.78;;;6.55;62.10
7178;BME280;3630;42.146;24.756;2023-03-18T05:13:53;100018.56;;;6.58;62.03
7178;BME280;3630;42.146;24.756;2023-03-18T05:16:21;100019.47;;;6.60;61.23
7178;BME280;3630;42.146;24.756;2023-03-18T05:18:48;100011.44;;;6.51;62.16
7178;BME280;3630;42.146;24.756;2023-03-18T05:21:16;100011.53;;;6.52;61.85
7178;BME280;3630;42.146;24.756;2023-03-18T05:23:43;99981.84;;;6.34;61.78
7178;BME280;3630;42.146;24.756;2023-03-18T05:26:10;100020.31;;;6.59;61.31
7178;BME280;3630;42.146;24.756;2023-03-18T05:28:37;100004.66;;;6.51;60.59
7178;BME280;3630;42.146;24.756;2023-03-18T05:31:04;100017.13;;;6.65;61.62
7178;BME280;3630;42.146;24.756;2023-03-18T05:33:33;100020.31;;;6.59;61.25
7178;BME280;3630;42.146;24.756;2023-03-18T05:36:00;100032.50;;;6.66;61.15
7178;BME280;3630;42.146;24.756;2023-03-18T05:38:27;100030.94;;;6.70;60.96
7178;BME280;3630;42.146;24.756;2023-03-18T05:40:54;100029.06;;;6.66;61.14
7178;BME280;3630;42.146;24.756;2023-03-18T05:43:21;100032.88;;;6.75;61.59
7178;BME280;3630;42.146;24.756;2023-03-18T05:45:49;100037.66;;;6.88;60.71
7178;BME280;3630;42.146;24.756;2023-03-18T05:48:15;100033.47;;;6.90;60.29
7178;BME280;3630;42.146;24.756;2023-03-18T05:50:44;100030.91;;;6.90;59.87
7178;BME280;3630;42.146;24.756;2023-03-18T05:53:12;100028.75;;;7.01;60.03
7178;BME280;3630;42.146;24.756;2023-03-18T05:55:41;100028.75;;;7.01;59.35
7178;BME280;3630;42.146;24.756;2023-03-18T05:58:08;100041.94;;;7.11;59.65
7178;BME280;3630;42.146;24.756;2023-03-18T06:00:35;100012.03;;;7.09;59.00
7178;BME280;3630;42.146;24.756;2023-03-18T06:03:03;100034.81;;;7.25;58.07
7178;BME280;3630;42.146;24.756;2023-03-18T06:05:30;100040.88;;;7.27;58.22
7178;BME280;3630;42.146;24.756;2023-03-18T06:07:58;100041.75;;;7.28;57.23
7178;BME280;3630;42.146;24.756;2023-03-18T06:10:26;100039.59;;;7.16;57.95
7178;BME280;3630;42.146;24.756;2023-03-18T06:12:53;100036.00;;;7.11;59.15
7178;BME280;3630;42.146;24.756;2023-03-18T06:15:21;100036.78;;;7.10;59.25
7178;BME280;3630;42.146;24.756;2023-03-18T06:17:49;100039.47;;;7.13;59.54
7178;BME280;3630;42.146;24.756;2023-03-18T06:20:16;100031.09;;;7.17;60.14
7178;BME280;3630;42.146;24.756;2023-03-18T06:22:44;100043.19;;;7.21;59.56
7178;BME280;3630;42.146;24.756;2023-03-18T06:25:16;100033.31;;;7.30;58.77
7178;BME280;3630;42.146;24.756;2023-03-18T06:27:43;100035.88;;;7.30;58.16
7178;BME280;3630;42.146;24.756;2023-03-18T06:30:11;100034.81;;;7.25;57.94
7178;BME280;3630;42.146;24.756;2023-03-18T06:32:38;100021.31;;;7.05;58.56
7178;BME280;3630;42.146;24.756;2023-03-18T06:35:06;100039.72;;;7.19;58.39
7178;BME280;3630;42.146;24.756;2023-03-18T06:37:33;100033.50;;;7.12;58.61
7178;BME280;3630;42.146;24.756;2023-03-18T06:40:00;100025.66;;;7.08;58.75
7178;BME280;3630;42.146;24.756;2023-03-18T06:42:29;100024.81;;;7.31;58.33
7178;BME280;3630;42.146;24.756;2023-03-18T06:44:56;100038.00;;;7.42;57.26
7178;BME280;3630;42.146;24.756;2023-03-18T06:47:23;100026.22;;;7.45;57.20
7178;BME280;3630;42.146;24.756;2023-03-18T06:49:49;100012.38;;;7.62;56.35
7178;BME280;3630;42.146;24.756;2023-03-18T06:52:17;100026.28;;;7.70;55.87
7178;BME280;3630;42.146;24.756;2023-03-18T06:54:44;100022.28;;;7.77;55.79
7178;BME280;3630;42.146;24.756;2023-03-18T06:57:12;100017.53;;;7.88;55.31
7178;BME280;3630;42.146;24.756;2023-03-18T06:59:40;100017.34;;;7.83;55.00
7178;BME280;3630;42.146;24.756;2023-03-18T07:02:09;100010.09;;;7.94;54.94
7178;BME280;3630;42.146;24.756;2023-03-18T07:04:36;100020.50;;;8.00;54.76
7178;BME280;3630;42.146;24.756;2023-03-18T07:07:03;100018.81;;;8.00;54.45
7178;BME280;3630;42.146;24.756;2023-03-18T07:09:31;100020.84;;;8.09;54.11
7178;BME280;3630;42.146;24.756;2023-03-18T07:11:58;100015.41;;;8.25;53.85
7178;BME280;3630;42.146;24.756;2023-03-18T07:14:26;100024.00;;;8.51;53.26
7178;BME280;3630;42.146;24.756;2023-03-18T07:16:55;100019.13;;;8.58;53.33
7178;BME280;3630;42.146;24.756;2023-03-18T07:19:22;100000.47;;;8.62;52.70
7178;BME280;3630;42.146;24.756;2023-03-18T07:21:49;100017.19;;;8.78;52.14
7178;BME280;3630;42.146;24.756;2023-03-18T07:24:16;100012.75;;;8.72;52.19
7178;BME280;3630;42.146;24.756;2023-03-18T07:26:45;100015.66;;;8.83;51.84
7178;BME280;3630;42.146;24.756;2023-03-18T07:29:15;100013.59;;;9.00;51.66
7178;BME280;3630;42.146;24.756;2023-03-18T07:31:42;100002.75;;;9.08;50.60
7178;BME280;3630;42.146;24.756;2023-03-18T07:34:10;99988.38;;;9.13;50.41
7178;BME280;3630;42.146;24.756;2023-03-18T07:36:38;99944.28;;;8.95;50.17
7178;BME280;3630;42.146;24.756;2023-03-18T07:39:05;100008.59;;;9.04;51.03
7178;BME280;3630;42.146;24.756;2023-03-18T07:41:34;100006.63;;;9.22;50.56
7178;BME280;3630;42.146;24.756;2023-03-18T07:44:01;100003.31;;;9.26;49.71
7178;BME280;3630;42.146;24.756;2023-03-18T07:46:28;99909.50;;;8.75;50.03
7178;BME280;3630;42.146;24.756;2023-03-18T07:48:55;100005.16;;;9.30;50.17
7178;BME280;3630;42.146;24.756;2023-03-18T07:51:23;100003.09;;;9.48;49.89
7178;BME280;3630;42.146;24.756;2023-03-18T07:53:50;100010.75;;;9.47;50.07
7178;BME280;3630;42.146;24.756;2023-03-18T07:56:17;100008.41;;;9.55;49.99
7178;BME280;3630;42.146;24.756;2023-03-18T07:58:44;100012.34;;;9.73;49.61
7178;BME280;3630;42.146;24.756;2023-03-18T08:01:12;100016.75;;;9.77;49.27
7178;BME280;3630;42.146;24.756;2023-03-18T08:03:40;100022.09;;;9.85;49.44
7178;BME280;3630;42.146;24.756;2023-03-18T08:06:09;100017.91;;;9.88;49.00
7178;BME280;3630;42.146;24.756;2023-03-18T08:08:39;100022.91;;;9.84;49.56
7178;BME280;3630;42.146;24.756;2023-03-18T08:11:06;100024.53;;;9.80;49.45
7178;BME280;3630;42.146;24.756;2023-03-18T08:13:33;100022.53;;;9.70;49.94
7178;BME280;3630;42.146;24.756;2023-03-18T08:16:00;100029.13;;;9.61;50.17
7178;BME280;3630;42.146;24.756;2023-03-18T08:18:27;100031.69;;;9.61;50.06
7178;BME280;3630;42.146;24.756;2023-03-18T08:20:54;100028.94;;;9.55;49.86
7178;BME280;3630;42.146;24.756;2023-03-18T08:23:21;100035.47;;;9.45;50.19
7178;BME280;3630;42.146;24.756;2023-03-18T08:25:49;100035.44;;;9.43;50.47
7178;BME280;3630;42.146;24.756;2023-03-18T08:28:17;100029.44;;;9.43;50.63
7178;BME280;3630;42.146;24.756;2023-03-18T08:30:44;100025.47;;;9.53;50.08
7178;BME280;3630;42.146;24.756;2023-03-18T08:33:12;100030.00;;;9.63;49.97
7178;BME280;3630;42.146;24.756;2023-03-18T08:35:39;100007.66;;;9.59;50.00
7178;BME280;3630;42.146;24.756;2023-03-18T08:38:07;100032.34;;;9.85;49.09
7178;BME280;3630;42.146;24.756;2023-03-18T08:40:34;100029.19;;;9.95;48.59
7178;BME280;3630;42.146;24.756;2023-03-18T08:43:02;100028.41;;;9.97;48.43
7178;BME280;3630;42.146;24.756;2023-03-18T08:45:29;100032.00;;;10.02;48.00
7178;BME280;3630;42.146;24.756;2023-03-18T08:47:56;100028.78;;;10.11;47.67
7178;BME280;3630;42.146;24.756;2023-03-18T08:50:23;100030.09;;;10.27;47.36
7178;BME280;3630;42.146;24.756;2023-03-18T08:52:53;100021.59;;;10.29;47.29
7178;BME280;3630;42.146;24.756;2023-03-18T08:55:22;100042.31;;;10.35;47.21
7178;BME280;3630;42.146;24.756;2023-03-18T08:57:49;100034.41;;;10.28;47.38
7178;BME280;3630;42.146;24.756;2023-03-18T09:00:19;100038.84;;;10.03;47.71
7178;BME280;3630;42.146;24.756;2023-03-18T09:02:47;100047.47;;;10.05;47.39
7178;BME280;3630;42.146;24.756;2023-03-18T09:05:14;100045.56;;;9.98;47.83
7178;BME280;3630;42.146;24.756;2023-03-18T09:07:40;100043.72;;;9.94;48.16
7178;BME280;3630;42.146;24.756;2023-03-18T09:10:08;100052.44;;;9.99;46.71
7178;BME280;3630;42.146;24.756;2023-03-18T09:12:37;100045.66;;;10.01;47.26
7178;BME280;3630;42.146;24.756;2023-03-18T09:15:05;100044.50;;;9.92;48.14
7178;BME280;3630;42.146;24.756;2023-03-18T09:17:36;100054.94;;;9.96;47.87
7178;BME280;3630;42.146;24.756;2023-03-18T09:20:05;100050.81;;;10.03;47.49
7178;BME280;3630;42.146;24.756;2023-03-18T09:22:32;100055.66;;;9.92;48.02
7178;BME280;3630;42.146;24.756;2023-03-18T09:24:59;100056.53;;;9.93;48.00
7178;BME280;3630;42.146;24.756;2023-03-18T09:27:26;100062.03;;;10.05;47.83
7178;BME280;3630;42.146;24.756;2023-03-18T09:29:53;100059.16;;;10.24;48.15
7178;BME280;3630;42.146;24.756;2023-03-18T09:32:21;100057.78;;;10.38;46.82
7178;BME280;3630;42.146;24.756;2023-03-18T09:34:49;100053.13;;;10.56;47.00
7178;BME280;3630;42.146;24.756;2023-03-18T09:37:16;100049.28;;;10.74;46.10
7178;BME280;3630;42.146;24.756;2023-03-18T09:39:43;100046.91;;;10.83;45.73
7178;BME280;3630;42.146;24.756;2023-03-18T09:42:21;100059.19;;;10.94;44.89
7178;BME280;3630;42.146;24.756;2023-03-18T09:44:56;100064.44;;;10.99;44.71
7178;BME280;3630;42.146;24.756;2023-03-18T09:47:45;100070.25;;;10.90;44.83
7178;BME280;3630;42.146;24.756;2023-03-18T09:50:26;100065.69;;;10.79;44.70
7178;BME280;3630;42.146;24.756;2023-03-18T09:53:05;100077.72;;;10.81;44.76
7178;BME280;3630;42.146;24.756;2023-03-18T09:55:39;100079.31;;;10.76;45.23
7178;BME280;3630;42.146;24.756;2023-03-18T09:58:17;100083.50;;;10.71;45.64
7178;BME280;3630;42.146;24.756;2023-03-18T10:00:46;100083.44;;;10.70;45.30
7178;BME280;3630;42.146;24.756;2023-03-18T10:03:19;100086.47;;;10.55;44.81
7178;BME280;3630;42.146;24.756;2023-03-18T10:05:52;100083.41;;;10.68;44.98
7178;BME280;3630;42.146;24.756;2023-03-18T10:08:27;100089.81;;;10.85;45.47
7178;BME280;3630;42.146;24.756;2023-03-18T10:11:01;100081.47;;;10.94;44.86
7178;BME280;3630;42.146;24.756;2023-03-18T10:13:34;100092.53;;;10.91;44.80
7178;BME280;3630;42.146;24.756;2023-03-18T10:16:03;100084.19;;;11.00;44.72
7178;BME280;3630;42.146;24.756;2023-03-18T10:18:36;100088.69;;;11.10;45.22
7178;BME280;3630;42.146;24.756;2023-03-18T10:21:14;100084.28;;;11.04;45.35
7178;BME280;3630;42.146;24.756;2023-03-18T10:23:50;100086.06;;;10.71;45.86
7178;BME280;3630;42.146;24.756;2023-03-18T10:26:26;100095.19;;;10.94;46.10
7178;BME280;3630;42.146;24.756;2023-03-18T10:29:03;100061.75;;;10.94;45.75
7178;BME280;3630;42.146;24.756;2023-03-18T10:31:51;100095.91;;;11.23;45.49
7178;BME280;3630;42.146;24.756;2023-03-18T10:34:30;100097.16;;;11.42;44.81
7178;BME280;3630;42.146;24.756;2023-03-18T10:37:04;100088.75;;;11.49;44.37
7178;BME280;3630;42.146;24.756;2023-03-18T10:39:33;100096.09;;;11.69;43.93
7178;BME280;3630;42.146;24.756;2023-03-18T10:42:14;100046.81;;;11.54;43.06
7178;BME280;3630;42.146;24.756;2023-03-18T10:44:44;100086.19;;;11.88;41.71
7178;BME280;3630;42.146;24.756;2023-03-18T10:47:13;100086.34;;;11.56;41.22
7178;BME280;3630;42.146;24.756;2023-03-18T10:49:47;100079.09;;;11.39;41.64
7178;BME280;3630;42.146;24.756;2023-03-18T10:52:21;100082.97;;;11.59;41.17
7178;BME280;3630;42.146;24.756;2023-03-18T10:54:51;100082.09;;;11.97;40.51
7178;BME280;3630;42.146;24.756;2023-03-18T10:57:19;100082.09;;;11.99;39.79
7178;BME280;3630;42.146;24.756;2023-03-18T10:59:48;100082.56;;;11.79;38.84
7178;BME280;3630;42.146;24.756;2023-03-18T11:02:18;100082.84;;;11.92;39.52
7178;BME280;3630;42.146;24.756;2023-03-18T11:04:49;100082.31;;;12.09;39.42
7178;BME280;3630;42.146;24.756;2023-03-18T11:07:22;100090.34;;;12.24;38.58
7178;BME280;3630;42.146;24.756;2023-03-18T11:09:50;100079.38;;;12.34;39.14
7178;BME280;3630;42.146;24.756;2023-03-18T11:12:22;100077.59;;;12.32;39.39
7178;BME280;3630;42.146;24.756;2023-03-18T11:14:50;100082.47;;;12.17;40.22
7178;BME280;3630;42.146;24.756;2023-03-18T11:17:20;100076.25;;;12.06;40.69
7178;BME280;3630;42.146;24.756;2023-03-18T11:19:57;100072.75;;;12.02;40.56
7178;BME280;3630;42.146;24.756;2023-03-18T11:22:27;100065.22;;;12.13;40.62
7178;BME280;3630;42.146;24.756;2023-03-18T11:25:04;100077.22;;;12.12;40.55
7178;BME280;3630;42.146;24.756;2023-03-18T11:27:36;100073.34;;;12.34;40.33
7178;BME280;3630;42.146;24.756;2023-03-18T11:30:11;100072.47;;;12.33;40.72
7178;BME280;3630;42.146;24.756;2023-03-18T11:32:52;100053.06;;;12.06;40.81
7178;BME280;3630;42.146;24.756;2023-03-18T11:35:22;100053.59;;;11.90;41.08
7178;BME280;3630;42.146;24.756;2023-03-18T11:37:51;100061.66;;;11.66;42.12
7178;BME280;3630;42.146;24.756;2023-03-18T11:40:22;100063.38;;;11.65;41.64
7178;BME280;3630;42.146;24.756;2023-03-18T11:42:53;100070.50;;;11.77;41.95
7178;BME280;3630;42.146;24.756;2023-03-18T11:45:38;100063.81;;;11.85;41.78
7178;BME280;3630;42.146;24.756;2023-03-18T11:48:14;100065.03;;;12.04;41.80
7178;BME280;3630;42.146;24.756;2023-03-18T11:50:53;100062.44;;;12.02;41.02
7178;BME280;3630;42.146;24.756;2023-03-18T11:53:27;100056.75;;;12.18;41.01
7178;BME280;3630;42.146;24.756;2023-03-18T11:55:57;100059.69;;;12.39;40.39
7178;BME280;3630;42.146;24.756;2023-03-18T11:58:54;100063.72;;;12.24;40.34
7178;BME280;3630;42.146;24.756;2023-03-18T12:01:29;100061.91;;;12.18;39.82
7178;BME280;3630;42.146;24.756;2023-03-18T12:04:12;100049.00;;;12.18;39.74
7178;BME280;3630;42.146;24.756;2023-03-18T12:06:53;100049.91;;;12.20;39.98
7178;BME280;3630;42.146;24.756;2023-03-18T12:09:30;100045.94;;;12.37;39.64
7178;BME280;3630;42.146;24.756;2023-03-18T12:12:12;100046.81;;;12.38;39.14
7178;BME280;3630;42.146;24.756;2023-03-18T12:14:49;100042.72;;;12.51;39.10
7178;BME280;3630;42.146;24.756;2023-03-18T12:17:27;100047.69;;;12.38;39.01
7178;BME280;3630;42.146;24.756;2023-03-18T12:23:00;100033.56;;;12.20;39.30
7178;BME280;3630;42.146;24.756;2023-03-18T12:25:40;100037.88;;;12.19;38.79
7178;BME280;3630;42.146;24.756;2023-03-18T12:28:16;100031.75;;;12.13;38.95
7178;BME280;3630;42.146;24.756;2023-03-18T12:31:13;100037.50;;;12.46;39.52
7178;BME280;3630;42.146;24.756;2023-03-18T12:33:53;100040.91;;;12.45;39.29
7178;BME280;3630;42.146;24.756;2023-03-18T12:36:29;100036.97;;;12.17;38.91
7178;BME280;3630;42.146;24.756;2023-03-18T12:42:27;100036.53;;;11.54;38.88
7178;BME280;3630;42.146;24.756;2023-03-18T12:44:58;100029.09;;;11.68;39.13
7178;BME280;3630;42.146;24.756;2023-03-18T12:47:32;100028.38;;;11.72;39.43
7178;BME280;3630;42.146;24.756;2023-03-18T12:50:05;100024.75;;;11.65;39.17
7178;BME280;3630;42.146;24.756;2023-03-18T12:52:36;100022.03;;;11.58;39.41
7178;BME280;3630;42.146;24.756;2023-03-18T12:55:11;100010.50;;;11.79;39.39
7178;BME280;3630;42.146;24.756;2023-03-18T12:57:44;100004.03;;;12.00;39.05
7178;BME280;3630;42.146;24.756;2023-03-18T13:00:23;100002.56;;;12.14;38.45
7178;BME280;3630;42.146;24.756;2023-03-18T13:02:59;99999.25;;;12.19;38.42
7178;BME280;3630;42.146;24.756;2023-03-18T13:05:43;99998.50;;;12.28;39.01
7178;BME280;3630;42.146;24.756;2023-03-18T13:08:38;99993.63;;;12.43;38.99
7178;BME280;3630;42.146;24.756;2023-03-18T13:11:11;100000.66;;;12.52;38.53
7178;BME280;3630;42.146;24.756;2023-03-18T13:13:45;99995.50;;;12.53;38.57
7178;BME280;3630;42.146;24.756;2023-03-18T13:16:18;99994.69;;;12.56;38.43
7178;BME280;3630;42.146;24.756;2023-03-18T13:18:48;99986.78;;;12.43;38.28
7178;BME280;3630;42.146;24.756;2023-03-18T13:21:20;99984.84;;;12.30;38.57
7178;BME280;3630;42.146;24.756;2023-03-18T13:27:02;99990.00;;;12.30;39.25
7178;BME280;3630;42.146;24.756;2023-03-18T13:29:40;99988.25;;;12.29;38.98
7178;BME280;3630;42.146;24.756;2023-03-18T13:32:27;99978.06;;;12.37;38.65
7178;BME280;3630;42.146;24.756;2023-03-18T13:35:24;99976.56;;;12.50;38.34